This is the latest recevied weather packets stored in our database for station/object K0WXC-1. If no packets are shown the sender has not sent any weather packets the latest 1 day(s).
| Time | Temp. | Humidity | Pressure | Rain* | Wind** | Luminosity | Snow |
|---|---|---|---|---|---|---|---|
| 1778092228 | 12.78° C | 34% | 1004.6 hPa | 0 mm | 1.34 m/s, 23° | - | - |
| 1778092168 | 12.78° C | 34% | 1004.6 hPa | 0 mm | 1.34 m/s, 23° | - | - |
| 1778092048 | 12.78° C | 34% | 1004.6 hPa | 0 mm | 1.34 m/s, 23° | - | - |
| 1778091808 | 12.78° C | 39% | 1004.6 hPa | 0 mm | 2.24 m/s, 336° | - | - |
| 1778091268 | 13.33° C | 35% | 1004.6 hPa | 0 mm | 1.34 m/s, 338° | - | - |
| 1778091088 | 13.33° C | 35% | 1004.6 hPa | 0 mm | 1.34 m/s, 338° | - | - |
| 1778090848 | 13.33° C | 37% | 1004.8 hPa | 0 mm | 1.79 m/s, 14° | - | - |
| 1778090728 | 13.89° C | 33% | 1004.9 hPa | 0 mm | 1.79 m/s, 253° | - | - |
| 1778090248 | 13.33° C | 36% | 1004.6 hPa | 0 mm | 0.89 m/s, 279° | - | - |
| 1778090188 | 13.33° C | 36% | 1004.6 hPa | 0 mm | 0.89 m/s, 279° | - | - |
| 1778089888 | 13.89° C | 33% | 1004.9 hPa | 0 mm | 0.45 m/s, 135° | - | - |
| 1778089708 | 13.89° C | 34% | 1004.7 hPa | 0 mm | 0 m/s | - | - |
| 1778089588 | 13.89° C | 34% | 1004.7 hPa | 0 mm | 0 m/s | - | - |
| 1778089528 | 13.33° C | 37% | 1004.8 hPa | 0 mm | 1.34 m/s, 20° | - | - |
| 1778089468 | 13.33° C | 37% | 1004.8 hPa | 0 mm | 1.34 m/s, 20° | - | - |
| 1778089288 | 13.33° C | 37% | 1004.8 hPa | 0 mm | 1.34 m/s, 20° | - | - |
| 1778089048 | 12.78° C | 36% | 1004.9 hPa | 0 mm | 1.34 m/s, 295° | - | - |
| 1778088808 | 12.22° C | 35% | 1004.9 hPa | 0 mm | 1.34 m/s, 31° | - | - |
| 1778088688 | 12.22° C | 35% | 1004.9 hPa | 0 mm | 1.34 m/s, 31° | - | - |
| 1778088448 | 13.33° C | 34% | 1004.8 hPa | 0 mm | 3.13 m/s, 350° | - | - |
| 1778088328 | 13.33° C | 37% | 1005 hPa | 0 mm | 2.24 m/s, 26° | - | - |
| 1778087968 | 13.33° C | 39% | 1004.9 hPa | 0 mm | 0.89 m/s, 310° | - | - |
| 1778087488 | 13.33° C | 38% | 1005 hPa | 0 mm | 0.45 m/s, 66° | - | - |
| 1778087308 | 13.33° C | 35% | 1004.9 hPa | 0 mm | 0.45 m/s, 110° | - | - |
| 1778087128 | 12.78° C | 43% | 1005.2 hPa | 0 mm | 2.24 m/s, 304° | - | - |
* Rain latest hour (hover to see other rain measurements)
** Current wind speed in m/s (hover to see current wind gust speed)